createdAt,value
2018-07-20T00:00:02.710Z,20.74
2018-07-20T00:01:02.775Z,20.59
2018-07-20T00:02:02.847Z,20.63
2018-07-20T00:03:02.919Z,20.62
2018-07-20T00:04:02.999Z,20.59
2018-07-20T00:05:03.043Z,20.47
2018-07-20T00:06:03.107Z,20.52
2018-07-20T00:07:03.184Z,20.55
2018-07-20T00:08:03.555Z,20.48
2018-07-20T00:09:03.311Z,20.44
2018-07-20T00:10:03.379Z,20.36
2018-07-20T00:11:03.439Z,20.32
2018-07-20T00:12:03.507Z,20.32
2018-07-20T00:13:03.578Z,20.34
2018-07-20T00:14:03.647Z,20.41
2018-07-20T00:15:03.711Z,20.40
2018-07-20T00:16:03.779Z,20.36
2018-07-20T00:17:03.839Z,20.39
2018-07-20T00:18:03.911Z,20.31
2018-07-20T00:19:03.991Z,20.34
2018-07-20T00:20:04.039Z,20.31
2018-07-20T00:21:04.111Z,20.28
2018-07-20T00:22:04.234Z,20.14
2018-07-20T00:23:04.251Z,20.11
2018-07-20T00:24:04.303Z,20.07
2018-07-20T00:25:04.371Z,20.06
2018-07-20T00:26:04.435Z,20.00
2018-07-20T00:27:04.503Z,20.02
2018-07-20T00:28:04.575Z,19.92
2018-07-20T00:29:04.643Z,19.89
2018-07-20T00:30:04.700Z,19.95
2018-07-20T00:31:04.768Z,19.96
2018-07-20T00:32:04.835Z,19.89
2018-07-20T00:33:04.919Z,19.86
2018-07-20T00:34:04.972Z,19.81
2018-07-20T00:35:05.032Z,19.89
2018-07-20T00:36:05.100Z,19.77
2018-07-20T00:37:05.164Z,19.96
2018-07-20T00:38:05.247Z,19.89
2018-07-20T00:39:05.504Z,19.82
2018-07-20T00:40:05.363Z,19.88
2018-07-20T00:41:05.428Z,19.81
2018-07-20T00:42:05.497Z,19.77
2018-07-20T00:43:05.572Z,19.77
2018-07-20T00:44:05.650Z,19.67
2018-07-20T00:45:05.700Z,19.66
2018-07-20T00:46:05.760Z,19.62
2018-07-20T00:47:05.828Z,19.47
2018-07-20T00:48:05.892Z,19.52
2018-07-20T00:49:05.965Z,19.44
2018-07-20T00:50:06.032Z,19.49
2018-07-20T00:51:06.092Z,19.41
2018-07-20T00:52:06.156Z,19.33
2018-07-20T00:53:06.224Z,19.34
2018-07-20T00:54:06.288Z,19.33
2018-07-20T00:55:06.616Z,19.16
2018-07-20T00:56:06.432Z,19.24
2018-07-20T00:57:06.493Z,19.22
2018-07-20T00:58:06.552Z,19.16
2018-07-20T00:59:06.621Z,19.26
2018-07-20T01:00:06.693Z,19.27
2018-07-20T01:01:06.757Z,19.14
2018-07-20T01:02:06.817Z,19.15
2018-07-20T01:03:06.896Z,19.19
2018-07-20T01:04:06.949Z,19.15
2018-07-20T01:05:07.028Z,19.12
2018-07-20T01:06:07.089Z,19.15
2018-07-20T01:07:07.149Z,19.12
2018-07-20T01:08:07.228Z,19.09
2018-07-20T01:09:07.278Z,19.15
2018-07-20T01:10:07.452Z,19.11
2018-07-20T01:11:07.413Z,19.00
2018-07-20T01:12:07.477Z,19.02
2018-07-20T01:13:07.543Z,19.07
2018-07-20T01:14:07.609Z,19.00
2018-07-20T01:15:07.685Z,18.98
2018-07-20T01:16:07.749Z,18.98
2018-07-20T01:17:07.809Z,18.95
2018-07-20T01:18:07.889Z,18.93
2018-07-20T01:19:07.941Z,18.95
2018-07-20T01:20:08.014Z,18.92
2018-07-20T01:21:08.079Z,18.93
2018-07-20T01:22:08.137Z,18.95
2018-07-20T01:23:08.205Z,18.90
2018-07-20T01:24:08.269Z,18.86
2018-07-20T01:25:08.529Z,18.86
2018-07-20T01:26:08.397Z,18.81
2018-07-20T01:27:08.465Z,18.74
2018-07-20T01:28:08.529Z,18.83
2018-07-20T01:29:08.602Z,18.74
2018-07-20T01:30:08.669Z,18.66
2018-07-20T01:31:08.733Z,18.73
2018-07-20T01:32:08.793Z,18.65
2018-07-20T01:33:08.860Z,18.63
2018-07-20T01:34:08.929Z,18.59
2018-07-20T01:35:09.001Z,18.59
2018-07-20T01:36:09.069Z,18.55
2018-07-20T01:37:09.121Z,18.47
2018-07-20T01:38:09.190Z,18.52
2018-07-20T01:39:09.249Z,18.45
2018-07-20T01:40:09.321Z,18.47
2018-07-20T01:41:09.417Z,18.40
2018-07-20T01:42:09.449Z,18.49
2018-07-20T01:43:09.518Z,18.47
2018-07-20T01:44:09.581Z,18.44
2018-07-20T01:45:09.653Z,18.40
2018-07-20T01:46:09.721Z,18.38
2018-07-20T01:47:09.790Z,18.40
2018-07-20T01:48:09.850Z,18.31
2018-07-20T01:49:09.909Z,18.31
2018-07-20T01:50:09.977Z,18.20
2018-07-20T01:51:10.050Z,18.18
2018-07-20T01:52:10.114Z,18.25
2018-07-20T01:53:10.174Z,18.22
2018-07-20T01:54:10.238Z,18.19
2018-07-20T01:55:10.302Z,18.15
2018-07-20T01:56:10.383Z,18.18
2018-07-20T01:57:10.454Z,18.13
2018-07-20T01:58:10.502Z,18.13
2018-07-20T01:59:10.570Z,18.07
2018-07-20T02:00:10.634Z,18.05
2018-07-20T02:01:10.707Z,18.10
2018-07-20T02:02:10.771Z,18.11
2018-07-20T02:03:10.835Z,18.05
2018-07-20T02:04:10.903Z,18.10
2018-07-20T02:05:10.965Z,18.04
2018-07-20T02:06:11.059Z,18.08
2018-07-20T02:07:11.099Z,18.04
2018-07-20T02:08:11.159Z,18.04
2018-07-20T02:09:11.223Z,18.03
2018-07-20T02:10:11.291Z,18.08
2018-07-20T02:11:11.363Z,18.20
2018-07-20T02:12:11.426Z,18.23
2018-07-20T02:13:11.487Z,18.26
2018-07-20T02:14:11.551Z,18.18
2018-07-20T02:15:11.619Z,18.19
2018-07-20T02:16:11.691Z,18.25
2018-07-20T02:17:11.755Z,18.26
2018-07-20T02:18:11.815Z,18.22
2018-07-20T02:19:11.879Z,18.23
2018-07-20T02:20:11.947Z,18.20
2018-07-20T02:21:12.015Z,18.18
2018-07-20T02:22:12.093Z,18.29
2018-07-20T02:23:12.146Z,18.28
2018-07-20T02:24:12.207Z,18.20
2018-07-20T02:25:12.271Z,18.16
2018-07-20T02:26:12.345Z,18.22
2018-07-20T02:27:12.412Z,18.22
2018-07-20T02:28:12.468Z,18.18
2018-07-20T02:29:12.535Z,18.05
2018-07-20T02:30:12.600Z,18.07
2018-07-20T02:31:12.672Z,18.03
2018-07-20T02:32:12.749Z,18.01
2018-07-20T02:33:12.795Z,17.92
2018-07-20T02:34:12.860Z,17.90
2018-07-20T02:35:12.931Z,17.94
2018-07-20T02:36:13.005Z,17.95
2018-07-20T02:37:13.064Z,17.85
2018-07-20T02:38:13.124Z,17.80
2018-07-20T02:39:13.188Z,17.82
2018-07-20T02:40:13.255Z,17.82
2018-07-20T02:41:13.320Z,17.78
2018-07-20T02:42:13.404Z,17.76
2018-07-20T02:43:13.456Z,17.72
2018-07-20T02:44:13.516Z,17.65
2018-07-20T02:45:13.580Z,17.70
2018-07-20T02:46:13.647Z,17.67
2018-07-20T02:47:13.724Z,17.70
2018-07-20T02:48:13.784Z,17.64
2018-07-20T02:49:13.847Z,17.63
2018-07-20T02:50:13.909Z,17.68
2018-07-20T02:51:13.976Z,17.76
2018-07-20T02:52:14.044Z,17.72
2018-07-20T02:53:14.112Z,17.82
2018-07-20T02:54:14.168Z,17.79
2018-07-20T02:55:14.244Z,17.83
2018-07-20T02:56:14.300Z,17.86
2018-07-20T02:57:14.376Z,17.83
2018-07-20T02:58:14.436Z,17.85
2018-07-20T02:59:14.500Z,17.79
2018-07-20T03:00:14.561Z,17.86
2018-07-20T03:01:14.629Z,17.87
2018-07-20T03:02:14.701Z,17.80
2018-07-20T03:03:14.764Z,17.85
2018-07-20T03:04:14.821Z,17.83
2018-07-20T03:05:14.889Z,17.79
2018-07-20T03:06:14.959Z,17.83
2018-07-20T03:07:15.027Z,17.78
2018-07-20T03:08:15.102Z,17.71
2018-07-20T03:09:15.149Z,17.71
2018-07-20T03:10:15.213Z,17.79
2018-07-20T03:11:15.281Z,17.78
2018-07-20T03:12:15.357Z,17.83
2018-07-20T03:13:15.417Z,17.80
2018-07-20T03:14:15.482Z,17.80
2018-07-20T03:15:15.541Z,17.76
2018-07-20T03:16:15.606Z,17.78
2018-07-20T03:17:15.698Z,17.76
2018-07-20T03:18:15.746Z,17.78
2018-07-20T03:19:15.801Z,17.74
2018-07-20T03:20:15.869Z,17.78
2018-07-20T03:21:15.934Z,17.67
2018-07-20T03:22:16.006Z,17.64
2018-07-20T03:23:16.070Z,17.63
2018-07-20T03:24:16.130Z,17.60
2018-07-20T03:25:16.193Z,17.64
2018-07-20T03:26:16.258Z,17.70
2018-07-20T03:27:16.325Z,17.68
2018-07-20T03:28:16.497Z,17.65
2018-07-20T03:29:16.454Z,17.57
2018-07-20T03:30:16.518Z,17.57
2018-07-20T03:31:16.586Z,17.54
2018-07-20T03:32:16.652Z,17.54
2018-07-20T03:33:16.729Z,17.60
2018-07-20T03:34:16.786Z,17.51
2018-07-20T03:35:16.846Z,17.49
2018-07-20T03:36:16.913Z,17.54
2018-07-20T03:37:16.980Z,17.51
2018-07-20T03:38:17.046Z,17.54
2018-07-20T03:39:17.114Z,17.54
2018-07-20T03:40:17.170Z,17.54
2018-07-20T03:41:17.238Z,17.56
2018-07-20T03:42:17.304Z,17.52
2018-07-20T03:43:17.474Z,17.51
2018-07-20T03:44:17.430Z,17.49
2018-07-20T03:45:17.498Z,17.59
2018-07-20T03:46:17.562Z,17.49
2018-07-20T03:47:17.626Z,17.59
2018-07-20T03:48:17.703Z,17.56
2018-07-20T03:49:17.782Z,17.51
2018-07-20T03:50:17.822Z,17.51
2018-07-20T03:51:17.891Z,17.52
2018-07-20T03:52:17.986Z,17.52
2018-07-20T03:53:18.023Z,17.52
2018-07-20T03:54:18.091Z,17.52
2018-07-20T03:55:18.151Z,17.51
2018-07-20T03:56:18.215Z,17.56
2018-07-20T03:57:18.280Z,17.57
2018-07-20T03:58:18.451Z,17.56
2018-07-20T03:59:18.411Z,17.52
2018-07-20T04:00:18.477Z,17.54
2018-07-20T04:01:18.539Z,17.59
2018-07-20T04:02:18.645Z,17.54
2018-07-20T04:03:18.675Z,17.54
2018-07-20T04:04:18.743Z,17.56
2018-07-20T04:05:18.799Z,17.54
2018-07-20T04:06:18.871Z,17.56
2018-07-20T04:07:18.936Z,17.59
2018-07-20T04:08:19.007Z,17.57
2018-07-20T04:09:19.067Z,17.52
2018-07-20T04:10:19.239Z,17.51
2018-07-20T04:11:19.191Z,17.54
2018-07-20T04:12:19.260Z,17.52
2018-07-20T04:13:19.321Z,17.56
2018-07-20T04:14:19.404Z,17.51
2018-07-20T04:15:19.451Z,17.59
2018-07-20T04:16:19.515Z,17.48
2018-07-20T04:17:19.584Z,17.54
2018-07-20T04:18:19.651Z,17.63
2018-07-20T04:19:19.719Z,17.67
2018-07-20T04:20:19.787Z,17.64
2018-07-20T04:21:19.843Z,17.78
2018-07-20T04:22:19.907Z,17.76
2018-07-20T04:23:19.971Z,17.74
2018-07-20T04:24:20.048Z,17.72
2018-07-20T04:25:20.112Z,17.74
2018-07-20T04:26:20.179Z,17.86
2018-07-20T04:27:20.239Z,17.92
2018-07-20T04:28:20.310Z,17.98
2018-07-20T04:29:20.371Z,18.04
2018-07-20T04:30:20.436Z,18.11
2018-07-20T04:31:20.635Z,18.20
2018-07-20T04:32:20.571Z,18.25
2018-07-20T04:33:20.624Z,18.38
2018-07-20T04:34:20.700Z,18.34
2018-07-20T04:35:20.864Z,18.31
2018-07-20T04:36:20.830Z,18.40
2018-07-20T04:37:20.887Z,18.43
2018-07-20T04:38:20.951Z,18.38
2018-07-20T04:39:21.024Z,18.37
2018-07-20T04:40:21.116Z,18.34
2018-07-20T04:41:21.169Z,18.34
2018-07-20T04:42:21.216Z,18.35
2018-07-20T04:43:21.280Z,18.33
2018-07-20T04:44:21.356Z,18.34
2018-07-20T04:45:21.416Z,18.35
2018-07-20T04:46:21.476Z,18.33
2018-07-20T04:47:21.544Z,18.31
2018-07-20T04:48:21.608Z,18.26
2018-07-20T04:49:21.711Z,18.34
2018-07-20T04:50:21.744Z,18.35
2018-07-20T04:51:21.804Z,18.29
2018-07-20T04:52:21.873Z,18.23
2018-07-20T04:53:21.932Z,18.23
2018-07-20T04:54:22.005Z,18.23
2018-07-20T04:55:22.073Z,18.19
2018-07-20T04:56:22.128Z,18.20
2018-07-20T04:57:22.196Z,18.23
2018-07-20T04:58:22.406Z,18.23
2018-07-20T04:59:22.333Z,18.19
2018-07-20T05:00:22.401Z,18.33
2018-07-20T05:01:22.461Z,18.43
2018-07-20T05:02:22.521Z,18.44
2018-07-20T05:03:22.592Z,18.37
2018-07-20T05:04:22.661Z,18.45
2018-07-20T05:05:22.720Z,18.50
2018-07-20T05:06:22.819Z,18.49
2018-07-20T05:07:22.849Z,18.53
2018-07-20T05:08:22.917Z,18.53
2018-07-20T05:09:22.989Z,18.53
2018-07-20T05:10:23.052Z,18.52
2018-07-20T05:11:23.115Z,18.55
2018-07-20T05:12:23.177Z,18.58
2018-07-20T05:13:23.245Z,18.65
2018-07-20T05:14:23.610Z,18.66
2018-07-20T05:15:23.381Z,18.73
2018-07-20T05:16:23.441Z,18.71
2018-07-20T05:17:23.505Z,18.73
2018-07-20T05:18:23.577Z,18.84
2018-07-20T05:19:23.641Z,18.74
2018-07-20T05:20:23.709Z,18.83
2018-07-20T05:21:23.766Z,18.74
2018-07-20T05:22:23.833Z,18.93
2018-07-20T05:23:23.897Z,18.95
2018-07-20T05:24:23.972Z,18.98
2018-07-20T05:25:24.042Z,18.95
2018-07-20T05:26:24.094Z,19.11
2018-07-20T05:27:24.165Z,19.08
2018-07-20T05:28:24.225Z,19.16
2018-07-20T05:29:24.444Z,19.18
2018-07-20T05:30:24.361Z,19.16
2018-07-20T05:31:24.426Z,19.19
2018-07-20T05:32:24.490Z,19.22
2018-07-20T05:33:24.554Z,19.26
2018-07-20T05:34:24.626Z,19.18
2018-07-20T05:35:24.697Z,19.16
2018-07-20T05:36:24.760Z,19.21
2018-07-20T05:37:24.818Z,19.33
2018-07-20T05:38:24.883Z,19.33
2018-07-20T05:39:24.958Z,19.34
2018-07-20T05:40:25.032Z,19.44
2018-07-20T05:41:25.082Z,19.39
2018-07-20T05:42:25.146Z,19.37
2018-07-20T05:43:25.215Z,19.44
2018-07-20T05:44:25.386Z,19.51
2018-07-20T05:45:25.346Z,19.54
2018-07-20T05:46:25.410Z,19.63
2018-07-20T05:47:25.474Z,19.63
2018-07-20T05:48:25.543Z,19.69
2018-07-20T05:49:25.614Z,19.67
2018-07-20T05:50:25.678Z,19.66
2018-07-20T05:51:25.738Z,19.66
2018-07-20T05:52:25.809Z,19.67
2018-07-20T05:53:25.878Z,19.67
2018-07-20T05:54:25.954Z,19.66
2018-07-20T05:55:26.011Z,19.70
2018-07-20T05:56:26.072Z,19.73
2018-07-20T05:57:26.138Z,19.76
2018-07-20T05:58:26.202Z,19.85
2018-07-20T05:59:26.270Z,19.84
2018-07-20T06:00:26.647Z,19.85
2018-07-20T06:01:26.399Z,19.86
2018-07-20T06:02:26.462Z,19.95
2018-07-20T06:03:26.531Z,20.00
2018-07-20T06:04:26.599Z,19.88
2018-07-20T06:05:26.693Z,19.95
2018-07-20T06:06:26.735Z,19.99
2018-07-20T06:07:26.795Z,20.02
2018-07-20T06:08:26.863Z,20.07
2018-07-20T06:09:26.931Z,20.11
2018-07-20T06:10:27.005Z,20.24
2018-07-20T06:11:27.067Z,20.25
2018-07-20T06:12:27.127Z,20.22
2018-07-20T06:13:27.191Z,20.34
2018-07-20T06:14:27.259Z,20.34
2018-07-20T06:15:27.329Z,20.32
2018-07-20T06:16:27.551Z,20.31
2018-07-20T06:17:27.455Z,20.34
2018-07-20T06:18:27.523Z,20.41
2018-07-20T06:19:27.597Z,20.36
2018-07-20T06:20:27.655Z,20.37
2018-07-20T06:21:27.745Z,20.51
2018-07-20T06:22:27.799Z,20.56
2018-07-20T06:23:27.913Z,20.60
2018-07-20T06:24:27.923Z,20.59
2018-07-20T06:25:27.987Z,20.60
2018-07-20T06:26:28.062Z,20.69
2018-07-20T06:27:28.127Z,20.67
2018-07-20T06:28:28.188Z,20.88
2018-07-20T06:29:28.252Z,21.17
2018-07-20T06:30:28.325Z,21.50
2018-07-20T06:31:28.391Z,21.91
2018-07-20T06:32:28.460Z,22.62
2018-07-20T06:33:28.524Z,23.32
2018-07-20T06:34:28.588Z,23.99
2018-07-20T06:35:28.655Z,24.55
2018-07-20T06:36:28.736Z,25.10
2018-07-20T06:37:28.800Z,25.44
2018-07-20T06:38:28.864Z,25.90
2018-07-20T06:39:28.940Z,26.13
2018-07-20T06:40:29.004Z,26.52
2018-07-20T06:41:29.472Z,26.78
2018-07-20T06:42:29.144Z,26.78
2018-07-20T06:43:29.216Z,27.00
2018-07-20T06:44:29.292Z,27.18
2018-07-20T06:45:29.360Z,27.70
2018-07-20T06:46:29.432Z,27.92
2018-07-20T06:47:29.520Z,28.19
2018-07-20T06:48:29.579Z,28.19
2018-07-20T06:49:29.648Z,28.42
2018-07-20T06:50:29.724Z,28.37
2018-07-20T06:51:29.797Z,28.66
2018-07-20T06:52:29.879Z,28.67
2018-07-20T06:53:29.949Z,28.98
2018-07-20T06:54:30.020Z,29.05
2018-07-20T06:55:30.092Z,29.12
2018-07-20T06:56:30.172Z,29.42
2018-07-20T06:57:30.260Z,29.57
2018-07-20T06:58:30.321Z,29.73
2018-07-20T06:59:30.392Z,29.90
2018-07-20T07:00:30.468Z,30.06
2018-07-20T07:01:30.549Z,29.88
2018-07-20T07:02:30.624Z,30.00
2018-07-20T07:03:30.705Z,29.97
2018-07-20T07:04:30.772Z,30.23
2018-07-20T07:05:30.849Z,30.43
2018-07-20T07:06:30.925Z,30.23
2018-07-20T07:07:31.009Z,30.43
2018-07-20T07:08:31.089Z,30.48
2018-07-20T07:09:31.186Z,30.57
2018-07-20T07:10:31.239Z,30.85
2018-07-20T07:11:31.312Z,31.02
2018-07-20T07:12:31.409Z,30.85
2018-07-20T07:13:31.465Z,30.90
2018-07-20T07:14:31.541Z,30.90
2018-07-20T07:15:31.625Z,30.91
2018-07-20T07:16:31.705Z,31.27
2018-07-20T07:17:31.781Z,30.84
2018-07-20T07:18:31.857Z,30.66
2018-07-20T07:19:31.930Z,30.59
2018-07-20T07:20:32.009Z,30.37
2018-07-20T07:21:32.086Z,30.30
2018-07-20T07:22:32.181Z,30.32
2018-07-20T07:23:32.293Z,30.39
2018-07-20T07:24:32.323Z,30.75
2018-07-20T07:25:32.397Z,30.70
2018-07-20T07:26:32.481Z,30.70
2018-07-20T07:27:32.557Z,30.97
2018-07-20T07:28:32.638Z,31.20
2018-07-20T07:29:32.711Z,31.47
2018-07-20T07:30:32.786Z,31.71
2018-07-20T07:31:32.866Z,31.87
2018-07-20T07:32:32.950Z,32.00
2018-07-20T07:33:33.026Z,31.66
2018-07-20T07:34:33.100Z,31.47
2018-07-20T07:35:33.174Z,31.51
2018-07-20T07:36:33.254Z,31.66
2018-07-20T07:37:33.329Z,31.69
2018-07-20T07:38:33.426Z,31.93
2018-07-20T07:39:33.486Z,31.90
2018-07-20T07:40:33.576Z,32.08
2018-07-20T07:41:33.642Z,31.93
2018-07-20T07:42:33.718Z,31.80
2018-07-20T07:43:33.806Z,31.77
2018-07-20T07:44:33.887Z,31.58
2018-07-20T07:45:33.955Z,31.54
2018-07-20T07:46:34.030Z,31.65
2018-07-20T07:47:34.111Z,31.70
2018-07-20T07:48:34.298Z,32.07
2018-07-20T07:49:34.262Z,31.87
2018-07-20T07:50:34.342Z,32.00
2018-07-20T07:51:34.422Z,32.09
2018-07-20T07:52:34.501Z,32.31
2018-07-20T07:53:34.582Z,32.26
2018-07-20T07:54:34.659Z,32.34
2018-07-20T07:55:34.731Z,32.03
2018-07-20T07:56:34.811Z,32.00
2018-07-20T07:57:34.890Z,32.48
2018-07-20T07:58:34.972Z,32.93
2018-07-20T07:59:35.054Z,33.22
2018-07-20T08:00:35.123Z,33.07
2018-07-20T08:01:35.200Z,33.09
2018-07-20T08:02:35.275Z,33.08
2018-07-20T08:03:35.395Z,33.17
2018-07-20T08:04:35.438Z,33.12
2018-07-20T08:05:35.511Z,33.27
2018-07-20T08:06:35.613Z,33.61
2018-07-20T08:07:35.667Z,33.67
2018-07-20T08:08:35.755Z,33.73
2018-07-20T08:09:35.881Z,34.05
2018-07-20T08:10:35.899Z,34.33
2018-07-20T08:11:35.979Z,34.33
2018-07-20T08:12:36.059Z,33.76
2018-07-20T08:13:36.162Z,33.57
2018-07-20T08:14:36.223Z,33.27
2018-07-20T08:15:36.295Z,33.32
2018-07-20T08:16:36.388Z,33.15
2018-07-20T08:17:36.451Z,33.64
2018-07-20T08:18:36.536Z,33.02
2018-07-20T08:19:36.618Z,32.92
2018-07-20T08:20:36.687Z,33.08
2018-07-20T08:21:36.763Z,33.39
2018-07-20T08:22:36.843Z,33.89
2018-07-20T08:23:36.930Z,34.17
2018-07-20T08:24:37.008Z,34.33
2018-07-20T08:25:37.083Z,33.64
2018-07-20T08:26:37.164Z,33.90
2018-07-20T08:27:37.239Z,33.98
2018-07-20T08:28:37.724Z,34.01
2018-07-20T08:29:37.396Z,33.99
2018-07-20T08:30:37.476Z,33.59
2018-07-20T08:31:37.572Z,33.55
2018-07-20T08:32:37.632Z,33.67
2018-07-20T08:33:37.716Z,33.89
2018-07-20T08:34:37.804Z,33.94
2018-07-20T08:35:37.872Z,33.98
2018-07-20T08:36:37.948Z,33.80
2018-07-20T08:37:38.029Z,33.99
2018-07-20T08:38:38.108Z,34.32
2018-07-20T08:39:38.208Z,34.78
2018-07-20T08:40:38.272Z,34.96
2018-07-20T08:41:38.344Z,35.27
2018-07-20T08:42:38.424Z,35.18
2018-07-20T08:43:38.521Z,35.02
2018-07-20T08:44:38.601Z,34.32
2018-07-20T08:45:38.672Z,33.79
2018-07-20T08:46:38.777Z,33.40
2018-07-20T08:47:38.836Z,32.67
2018-07-20T08:48:38.909Z,32.41
2018-07-20T08:49:39.006Z,32.59
2018-07-20T08:50:39.073Z,32.92
2018-07-20T08:51:39.149Z,33.19
2018-07-20T08:52:39.229Z,33.14
2018-07-20T08:53:39.305Z,33.47
2018-07-20T08:54:39.541Z,33.79
2018-07-20T08:55:39.465Z,33.71
2018-07-20T08:56:39.545Z,33.28
2018-07-20T08:57:39.626Z,33.42
2018-07-20T08:58:39.706Z,33.62
2018-07-20T08:59:39.789Z,33.61
2018-07-20T09:00:39.877Z,33.64
2018-07-20T09:01:39.946Z,33.86
2018-07-20T09:02:40.022Z,33.92
2018-07-20T09:03:40.187Z,34.03
2018-07-20T09:04:40.286Z,34.14
2018-07-20T09:05:40.258Z,34.32
2018-07-20T09:06:40.344Z,34.29
2018-07-20T09:07:40.414Z,34.55
2018-07-20T09:08:40.494Z,34.61
2018-07-20T09:09:40.582Z,34.52
2018-07-20T09:10:40.658Z,34.30
2018-07-20T09:11:40.732Z,34.14
2018-07-20T09:12:40.806Z,34.08
2018-07-20T09:13:41.003Z,34.11
2018-07-20T09:14:40.970Z,34.18
2018-07-20T09:15:41.047Z,34.21
2018-07-20T09:16:41.118Z,34.02
2018-07-20T09:17:41.198Z,34.03
2018-07-20T09:18:41.282Z,33.96
2018-07-20T09:19:41.354Z,33.80
2018-07-20T09:20:41.622Z,33.73
2018-07-20T09:21:41.515Z,33.73
2018-07-20T09:22:41.588Z,32.87
2018-07-20T09:23:41.666Z,32.58
2018-07-20T09:24:41.743Z,32.58
2018-07-20T09:25:41.826Z,32.38
2018-07-20T09:26:41.910Z,32.29
2018-07-20T09:27:41.978Z,32.23
2018-07-20T09:28:42.065Z,32.33
2018-07-20T09:29:42.130Z,32.55
2018-07-20T09:30:42.323Z,32.92
2018-07-20T09:31:42.286Z,33.31
2018-07-20T09:32:42.367Z,33.02
2018-07-20T09:33:42.438Z,33.30
2018-07-20T09:34:42.514Z,33.19
2018-07-20T09:35:42.599Z,33.24
2018-07-20T09:36:42.675Z,33.30
2018-07-20T09:37:42.747Z,33.55
2018-07-20T09:38:42.826Z,33.30
2018-07-20T09:39:42.899Z,33.19
2018-07-20T09:40:42.995Z,33.08
2018-07-20T09:41:43.059Z,32.86
2018-07-20T09:42:43.152Z,32.67
2018-07-20T09:43:43.207Z,32.93
2018-07-20T09:44:43.283Z,33.32
2018-07-20T09:45:43.380Z,33.57
2018-07-20T09:46:43.447Z,33.62
2018-07-20T09:47:43.515Z,33.46
2018-07-20T09:48:43.593Z,33.28
2018-07-20T09:49:43.663Z,33.28
2018-07-20T09:50:43.747Z,33.01
2018-07-20T09:51:43.823Z,33.19
2018-07-20T09:52:43.899Z,33.49
2018-07-20T09:53:43.971Z,33.57
2018-07-20T09:54:44.051Z,33.58
2018-07-20T09:55:44.354Z,33.64
2018-07-20T09:56:44.200Z,33.49
2018-07-20T09:57:44.279Z,33.61
2018-07-20T09:58:44.352Z,33.89
2018-07-20T09:59:44.460Z,33.89
2018-07-20T10:00:44.535Z,33.87
2018-07-20T10:01:44.588Z,33.96
2018-07-20T10:02:44.660Z,34.03
2018-07-20T10:03:44.731Z,34.05
2018-07-20T10:04:44.814Z,34.30
2018-07-20T10:05:44.892Z,34.36
2018-07-20T10:06:44.963Z,34.55
2018-07-20T10:07:45.044Z,34.66
2018-07-20T10:08:45.119Z,34.39
2018-07-20T10:09:45.196Z,34.23
2018-07-20T10:10:45.280Z,33.90
2018-07-20T10:11:45.344Z,33.69
2018-07-20T10:12:45.480Z,33.53
2018-07-20T10:13:45.492Z,33.22
2018-07-20T10:14:45.568Z,33.15
2018-07-20T10:15:45.655Z,33.17
2018-07-20T10:16:45.732Z,33.30
2018-07-20T10:17:45.796Z,33.22
2018-07-20T10:18:45.872Z,33.04
2018-07-20T10:19:45.948Z,32.96
2018-07-20T10:20:46.034Z,32.78
2018-07-20T10:21:46.104Z,32.95
2018-07-20T10:22:46.172Z,33.20
2018-07-20T10:23:46.248Z,33.11
2018-07-20T10:24:46.325Z,33.02
2018-07-20T10:25:46.430Z,32.87
2018-07-20T10:26:46.480Z,33.07
2018-07-20T10:27:46.550Z,33.20
2018-07-20T10:28:46.625Z,32.83
2018-07-20T10:29:46.701Z,32.87
2018-07-20T10:30:46.822Z,33.01
2018-07-20T10:31:46.857Z,32.55
2018-07-20T10:32:46.925Z,32.74
2018-07-20T10:33:47.001Z,32.60
2018-07-20T10:34:47.073Z,32.67
2018-07-20T10:35:47.173Z,33.04
2018-07-20T10:36:47.225Z,33.17
2018-07-20T10:37:47.297Z,33.28
2018-07-20T10:38:47.372Z,32.71
2018-07-20T10:39:47.448Z,33.09
2018-07-20T10:40:47.529Z,33.39
2018-07-20T10:41:47.605Z,33.37
2018-07-20T10:42:47.673Z,33.45
2018-07-20T10:43:47.745Z,33.67
2018-07-20T10:44:47.820Z,33.67
2018-07-20T10:45:47.901Z,33.84
2018-07-20T10:46:47.980Z,33.61
2018-07-20T10:47:48.045Z,33.32
2018-07-20T10:48:48.117Z,33.12
2018-07-20T10:49:48.193Z,33.24
2018-07-20T10:50:48.269Z,33.20
2018-07-20T10:51:48.365Z,33.17
2018-07-20T10:52:48.417Z,33.07
2018-07-20T10:53:48.489Z,33.08
2018-07-20T10:54:48.565Z,33.19
2018-07-20T10:55:48.641Z,33.14
2018-07-20T10:56:48.721Z,32.87
2018-07-20T10:57:48.800Z,32.93
2018-07-20T10:58:48.861Z,33.02
2018-07-20T10:59:48.941Z,33.00
2018-07-20T11:00:49.014Z,33.02
2018-07-20T11:01:49.118Z,32.80
2018-07-20T11:02:49.158Z,32.80
2018-07-20T11:03:49.234Z,33.00
2018-07-20T11:04:49.309Z,32.97
2018-07-20T11:05:49.381Z,32.87
2018-07-20T11:06:49.462Z,32.52
2018-07-20T11:07:49.533Z,32.55
2018-07-20T11:08:49.602Z,32.46
2018-07-20T11:09:49.682Z,32.43
2018-07-20T11:10:49.750Z,32.33
2018-07-20T11:11:49.829Z,32.41
2018-07-20T11:12:49.906Z,32.36
2018-07-20T11:13:50.016Z,32.38
2018-07-20T11:14:50.054Z,32.27
2018-07-20T11:15:50.117Z,32.16
2018-07-20T11:16:50.437Z,32.08
2018-07-20T11:17:50.266Z,32.11
2018-07-20T11:18:50.358Z,32.21
2018-07-20T11:19:50.416Z,32.29
2018-07-20T11:20:50.486Z,32.34
2018-07-20T11:21:50.570Z,32.21
2018-07-20T11:22:50.638Z,32.31
2018-07-20T11:23:50.706Z,32.07
2018-07-20T11:24:50.782Z,32.03
2018-07-20T11:25:50.857Z,32.14
2018-07-20T11:26:50.934Z,32.01
2018-07-20T11:27:51.006Z,31.96
2018-07-20T11:28:51.074Z,31.90
2018-07-20T11:29:51.150Z,31.93
2018-07-20T11:30:51.222Z,31.89
2018-07-20T11:31:51.295Z,31.90
2018-07-20T11:32:51.530Z,31.97
2018-07-20T11:33:51.438Z,31.97
2018-07-20T11:34:51.516Z,32.09
2018-07-20T11:35:51.586Z,32.09
2018-07-20T11:36:51.662Z,32.21
2018-07-20T11:37:51.740Z,32.37
2018-07-20T11:38:51.814Z,32.31
2018-07-20T11:39:51.878Z,32.36
2018-07-20T11:40:51.962Z,32.49
2018-07-20T11:41:52.040Z,32.67
2018-07-20T11:42:52.114Z,32.71
2018-07-20T11:43:52.170Z,32.41
2018-07-20T11:44:52.250Z,32.34
2018-07-20T11:45:52.327Z,32.34
2018-07-20T11:46:52.390Z,32.26
2018-07-20T11:47:52.480Z,32.23
2018-07-20T11:48:52.547Z,32.34
2018-07-20T11:49:52.611Z,32.36
2018-07-20T11:50:52.683Z,32.22
2018-07-20T11:51:52.761Z,32.18
2018-07-20T11:52:52.839Z,32.21
2018-07-20T11:53:52.911Z,32.15
2018-07-20T11:54:52.979Z,32.16
2018-07-20T11:55:53.068Z,32.23
2018-07-20T11:56:53.123Z,32.33
2018-07-20T11:57:53.215Z,32.38
2018-07-20T11:58:53.271Z,32.45
2018-07-20T11:59:53.347Z,32.59
2018-07-20T12:00:53.415Z,32.43
2018-07-20T12:01:53.510Z,32.43
2018-07-20T12:02:53.571Z,32.27
2018-07-20T12:03:53.643Z,32.14
2018-07-20T12:04:53.708Z,32.22
2018-07-20T12:05:53.780Z,32.19
2018-07-20T12:06:53.899Z,32.18
2018-07-20T12:07:53.935Z,32.21
2018-07-20T12:08:54.011Z,32.21
2018-07-20T12:09:54.072Z,32.12
2018-07-20T12:10:54.155Z,32.01
2018-07-20T12:11:54.223Z,32.18
2018-07-20T12:12:54.308Z,32.08
2018-07-20T12:13:54.364Z,32.12
2018-07-20T12:14:54.440Z,32.12
2018-07-20T12:15:54.516Z,32.07
2018-07-20T12:16:54.584Z,32.15
2018-07-20T12:17:54.664Z,32.26
2018-07-20T12:18:54.740Z,32.26
2018-07-20T12:19:54.804Z,32.55
2018-07-20T12:20:54.875Z,32.68
2018-07-20T12:21:54.948Z,32.19
2018-07-20T12:22:55.028Z,32.31
2018-07-20T12:23:55.105Z,32.49
2018-07-20T12:24:55.168Z,32.64
2018-07-20T12:25:55.240Z,32.68
2018-07-20T12:26:55.316Z,32.56
2018-07-20T12:27:55.396Z,32.58
2018-07-20T12:28:55.469Z,32.52
2018-07-20T12:29:55.536Z,32.80
2018-07-20T12:30:55.609Z,32.97
2018-07-20T12:31:55.680Z,33.07
2018-07-20T12:32:55.760Z,33.05
2018-07-20T12:33:55.846Z,32.67
2018-07-20T12:34:55.901Z,32.34
2018-07-20T12:35:55.972Z,32.09
2018-07-20T12:36:56.061Z,32.01
2018-07-20T12:37:56.116Z,32.03
2018-07-20T12:38:56.344Z,32.27
2018-07-20T12:39:56.268Z,32.43
2018-07-20T12:40:56.336Z,32.37
2018-07-20T12:41:56.409Z,32.49
2018-07-20T12:42:56.480Z,32.51
2018-07-20T12:43:56.561Z,32.67
2018-07-20T12:44:56.641Z,32.46
2018-07-20T12:45:56.705Z,32.40
2018-07-20T12:46:56.777Z,32.34
2018-07-20T12:47:56.849Z,32.58
2018-07-20T12:48:56.925Z,32.78
2018-07-20T12:49:57.009Z,33.11
2018-07-20T12:50:57.069Z,33.30
2018-07-20T12:51:57.180Z,33.42
2018-07-20T12:52:57.346Z,33.59